sensor_id;sensor_type;location;lat;lon;timestamp;pressure;altitude;pressure_sealevel;temperature;humidity
30897;BME280;64229;52.246;21.054;2024-02-23T00:01:42;98537.09;;;8.38;84.27
30897;BME280;64229;52.246;21.054;2024-02-23T00:04:08;98550.53;;;8.28;84.63
30897;BME280;64229;52.246;21.054;2024-02-23T00:06:34;98548.34;;;8.35;84.42
30897;BME280;64229;52.246;21.054;2024-02-23T00:08:59;98536.38;;;8.32;84.13
30897;BME280;64229;52.246;21.054;2024-02-23T00:11:26;98557.72;;;8.46;84.38
30897;BME280;64229;52.246;21.054;2024-02-23T00:13:53;98549.25;;;8.25;85.01
30897;BME280;64229;52.246;21.054;2024-02-23T00:16:18;98549.25;;;8.25;84.97
30897;BME280;64229;52.246;21.054;2024-02-23T00:18:44;98525.78;;;8.00;85.79
30897;BME280;64229;52.246;21.054;2024-02-23T00:21:09;98518.28;;;8.02;86.01
30897;BME280;64229;52.246;21.054;2024-02-23T00:23:35;98545.91;;;8.20;86.02
30897;BME280;64229;52.246;21.054;2024-02-23T00:26:01;98551.16;;;8.06;86.86
30897;BME280;64229;52.246;21.054;2024-02-23T00:28:26;98552.53;;;8.03;87.38
30897;BME280;64229;52.246;21.054;2024-02-23T00:30:51;98544.53;;;7.90;88.44
30897;BME280;64229;52.246;21.054;2024-02-23T00:33:18;98538.28;;;7.80;88.74
30897;BME280;64229;52.246;21.054;2024-02-23T00:35:43;98540.84;;;7.86;88.95
30897;BME280;64229;52.246;21.054;2024-02-23T00:38:08;98544.13;;;7.96;88.44
30897;BME280;64229;52.246;21.054;2024-02-23T00:40:34;98543.09;;;7.78;89.89
30897;BME280;64229;52.246;21.054;2024-02-23T00:42:59;98541.09;;;7.70;90.61
30897;BME280;64229;52.246;21.054;2024-02-23T00:45:28;98539.38;;;7.79;90.25
30897;BME280;64229;52.246;21.054;2024-02-23T00:47:54;98531.59;;;7.83;89.97
30897;BME280;64229;52.246;21.054;2024-02-23T00:50:19;98530.34;;;7.94;89.51
30897;BME280;64229;52.246;21.054;2024-02-23T00:52:44;98529.81;;;7.78;90.20
30897;BME280;64229;52.246;21.054;2024-02-23T00:55:10;98533.91;;;7.71;90.89
30897;BME280;64229;52.246;21.054;2024-02-23T00:57:35;98528.31;;;7.72;91.07
30897;BME280;64229;52.246;21.054;2024-02-23T01:00:02;98520.19;;;7.82;90.33
30897;BME280;64229;52.246;21.054;2024-02-23T01:02:30;98513.53;;;7.66;91.64
30897;BME280;64229;52.246;21.054;2024-02-23T01:04:56;98514.69;;;7.60;92.23
30897;BME280;64229;52.246;21.054;2024-02-23T01:07:23;98520.56;;;7.57;92.71
30897;BME280;64229;52.246;21.054;2024-02-23T01:09:48;98503.84;;;7.38;93.01
30897;BME280;64229;52.246;21.054;2024-02-23T01:12:14;98490.06;;;7.54;92.18
30897;BME280;64229;52.246;21.054;2024-02-23T01:14:39;98502.94;;;7.66;91.96
30897;BME280;64229;52.246;21.054;2024-02-23T01:17:04;98501.31;;;7.65;92.22
30897;BME280;64229;52.246;21.054;2024-02-23T01:19:29;98493.94;;;7.62;92.27
30897;BME280;64229;52.246;21.054;2024-02-23T01:21:55;98495.31;;;7.60;92.54
30897;BME280;64229;52.246;21.054;2024-02-23T01:24:25;98491.44;;;7.52;93.10
30897;BME280;64229;52.246;21.054;2024-02-23T01:26:52;98491.25;;;7.81;91.56
30897;BME280;64229;52.246;21.054;2024-02-23T01:29:18;98492.56;;;7.65;92.41
30897;BME280;64229;52.246;21.054;2024-02-23T01:31:43;98464.19;;;7.46;92.50
30897;BME280;64229;52.246;21.054;2024-02-23T01:34:09;98491.72;;;7.50;93.27
30897;BME280;64229;52.246;21.054;2024-02-23T01:36:34;98495.75;;;7.67;92.68
30897;BME280;64229;52.246;21.054;2024-02-23T01:39:01;98495.09;;;7.56;93.33
30897;BME280;64229;52.246;21.054;2024-02-23T01:41:26;98490.59;;;7.57;93.27
30897;BME280;64229;52.246;21.054;2024-02-23T01:43:51;98500.03;;;7.63;93.11
30897;BME280;64229;52.246;21.054;2024-02-23T01:46:17;98488.84;;;7.66;93.39
30897;BME280;64229;52.246;21.054;2024-02-23T01:48:44;98494.38;;;7.69;92.64
30897;BME280;64229;52.246;21.054;2024-02-23T01:51:11;98496.69;;;7.57;93.45
30897;BME280;64229;52.246;21.054;2024-02-23T01:53:36;98488.44;;;7.59;93.66
30897;BME280;64229;52.246;21.054;2024-02-23T01:56:03;98505.50;;;7.71;93.58
30897;BME280;64229;52.246;21.054;2024-02-23T01:58:29;98487.63;;;7.58;93.37
30897;BME280;64229;52.246;21.054;2024-02-23T02:00:55;98492.84;;;7.82;92.66
30897;BME280;64229;52.246;21.054;2024-02-23T02:03:21;98482.19;;;7.68;92.64
30897;BME280;64229;52.246;21.054;2024-02-23T02:24:56;98461.53;;;7.98;91.91
30897;BME280;64229;52.246;21.054;2024-02-23T02:27:22;98471.13;;;7.94;92.40
30897;BME280;64229;52.246;21.054;2024-02-23T02:29:50;98470.09;;;7.76;93.41
30897;BME280;64229;52.246;21.054;2024-02-23T02:32:16;98467.94;;;7.78;93.57
30897;BME280;64229;52.246;21.054;2024-02-23T02:34:41;98471.53;;;7.87;93.16
30897;BME280;64229;52.246;21.054;2024-02-23T02:37:06;98466.16;;;7.73;94.00
30897;BME280;64229;52.246;21.054;2024-02-23T02:39:32;98470.38;;;7.74;93.96
30897;BME280;64229;52.246;21.054;2024-02-23T02:41:58;98461.56;;;7.79;93.99
30897;BME280;64229;52.246;21.054;2024-02-23T02:44:23;98458.59;;;7.80;93.77
30897;BME280;64229;52.246;21.054;2024-02-23T02:46:48;98465.19;;;7.83;93.52
30897;BME280;64229;52.246;21.054;2024-02-23T02:49:14;98459.84;;;8.02;92.75
30897;BME280;64229;52.246;21.054;2024-02-23T02:51:39;98469.25;;;7.94;92.86
30897;BME280;64229;52.246;21.054;2024-02-23T02:54:05;98449.69;;;7.90;92.44
30897;BME280;64229;52.246;21.054;2024-02-23T02:56:30;98464.38;;;8.15;91.71
30897;BME280;64229;52.246;21.054;2024-02-23T02:58:55;98463.00;;;8.04;92.39
30897;BME280;64229;52.246;21.054;2024-02-23T03:01:21;98469.97;;;8.00;92.92
30897;BME280;64229;52.246;21.054;2024-02-23T03:03:46;98452.97;;;8.15;92.17
30897;BME280;64229;52.246;21.054;2024-02-23T03:06:12;98469.34;;;8.22;91.71
30897;BME280;64229;52.246;21.054;2024-02-23T03:08:37;98473.06;;;8.21;91.69
30897;BME280;64229;52.246;21.054;2024-02-23T03:11:03;98461.06;;;8.09;92.28
30897;BME280;64229;52.246;21.054;2024-02-23T03:13:28;98471.09;;;8.12;92.58
30897;BME280;64229;52.246;21.054;2024-02-23T03:15:53;98470.47;;;8.34;92.13
30897;BME280;64229;52.246;21.054;2024-02-23T03:18:19;98461.09;;;8.37;91.41
30897;BME280;64229;52.246;21.054;2024-02-23T03:20:44;98472.09;;;8.30;92.22
30897;BME280;64229;52.246;21.054;2024-02-23T03:23:10;98478.44;;;8.48;92.19
30897;BME280;64229;52.246;21.054;2024-02-23T03:25:35;98489.97;;;8.71;91.62
30897;BME280;64229;52.246;21.054;2024-02-23T03:28:00;98481.97;;;8.71;91.86
30897;BME280;64229;52.246;21.054;2024-02-23T03:30:26;98489.69;;;8.73;92.60
30897;BME280;64229;52.246;21.054;2024-02-23T03:32:51;98475.28;;;8.46;94.27
30897;BME280;64229;52.246;21.054;2024-02-23T03:35:16;98484.72;;;8.38;95.59
30897;BME280;64229;52.246;21.054;2024-02-23T03:37:42;98490.06;;;8.52;95.57
30897;BME280;64229;52.246;21.054;2024-02-23T03:40:07;98495.09;;;8.54;96.58
30897;BME280;64229;52.246;21.054;2024-02-23T03:42:33;98493.22;;;8.54;96.94
30897;BME280;64229;52.246;21.054;2024-02-23T03:44:58;98493.50;;;8.39;98.94
30897;BME280;64229;52.246;21.054;2024-02-23T03:47:24;98498.09;;;8.33;99.66
30897;BME280;64229;52.246;21.054;2024-02-23T03:49:49;98498.47;;;8.27;100.00
30897;BME280;64229;52.246;21.054;2024-02-23T03:52:14;98498.75;;;8.25;100.00
30897;BME280;64229;52.246;21.054;2024-02-23T03:54:40;98502.41;;;7.97;100.00
30897;BME280;64229;52.246;21.054;2024-02-23T03:57:05;98511.63;;;7.86;100.00
30897;BME280;64229;52.246;21.054;2024-02-23T03:59:30;98509.28;;;7.65;100.00
30897;BME280;64229;52.246;21.054;2024-02-23T04:01:56;98504.41;;;7.72;100.00
30897;BME280;64229;52.246;21.054;2024-02-23T04:04:21;98522.28;;;7.67;100.00
30897;BME280;64229;52.246;21.054;2024-02-23T04:06:47;98514.38;;;7.62;100.00
30897;BME280;64229;52.246;21.054;2024-02-23T04:09:12;98516.06;;;7.58;100.00
30897;BME280;64229;52.246;21.054;2024-02-23T04:11:37;98515.75;;;7.59;100.00
30897;BME280;64229;52.246;21.054;2024-02-23T04:14:03;98521.16;;;7.35;100.00
30897;BME280;64229;52.246;21.054;2024-02-23T04:16:30;98522.22;;;7.34;100.00
30897;BME280;64229;52.246;21.054;2024-02-23T04:18:55;98521.28;;;7.25;100.00
30897;BME280;64229;52.246;21.054;2024-02-23T04:21:21;98499.69;;;7.13;100.00
30897;BME280;64229;52.246;21.054;2024-02-23T04:23:46;98531.44;;;7.18;100.00
30897;BME280;64229;52.246;21.054;2024-02-23T04:26:12;98528.63;;;7.09;100.00
30897;BME280;64229;52.246;21.054;2024-02-23T04:28:39;98530.13;;;6.96;100.00
30897;BME280;64229;52.246;21.054;2024-02-23T04:31:04;98534.50;;;7.06;100.00
30897;BME280;64229;52.246;21.054;2024-02-23T04:33:29;98539.31;;;7.04;100.00
30897;BME280;64229;52.246;21.054;2024-02-23T04:35:55;98534.75;;;7.29;100.00
30897;BME280;64229;52.246;21.054;2024-02-23T04:38:20;98532.03;;;7.15;100.00
30897;BME280;64229;52.246;21.054;2024-02-23T04:40:45;98534.63;;;6.96;100.00
30897;BME280;64229;52.246;21.054;2024-02-23T04:43:10;98539.53;;;7.08;100.00
30897;BME280;64229;52.246;21.054;2024-02-23T04:45:36;98536.22;;;6.97;100.00
30897;BME280;64229;52.246;21.054;2024-02-23T04:48:01;98536.44;;;7.01;100.00
30897;BME280;64229;52.246;21.054;2024-02-23T04:50:27;98533.34;;;6.93;100.00
30897;BME280;64229;52.246;21.054;2024-02-23T04:52:52;98539.06;;;7.01;100.00
30897;BME280;64229;52.246;21.054;2024-02-23T04:55:18;98539.25;;;6.85;100.00
30897;BME280;64229;52.246;21.054;2024-02-23T04:57:43;98549.34;;;7.07;100.00
30897;BME280;64229;52.246;21.054;2024-02-23T05:00:09;98547.59;;;6.97;100.00
30897;BME280;64229;52.246;21.054;2024-02-23T05:02:34;98542.22;;;6.84;100.00
30897;BME280;64229;52.246;21.054;2024-02-23T05:05:04;98565.28;;;6.83;100.00
30897;BME280;64229;52.246;21.054;2024-02-23T05:07:31;98554.09;;;6.86;100.00
30897;BME280;64229;52.246;21.054;2024-02-23T05:09:57;98557.16;;;6.99;100.00
30897;BME280;64229;52.246;21.054;2024-02-23T05:12:22;98551.78;;;7.04;100.00
30897;BME280;64229;52.246;21.054;2024-02-23T05:14:47;98566.81;;;7.13;100.00
30897;BME280;64229;52.246;21.054;2024-02-23T05:17:13;98567.72;;;7.22;100.00
30897;BME280;64229;52.246;21.054;2024-02-23T05:19:38;98562.84;;;7.11;100.00
30897;BME280;64229;52.246;21.054;2024-02-23T05:22:03;98569.47;;;7.13;100.00
30897;BME280;64229;52.246;21.054;2024-02-23T05:24:29;98572.91;;;7.33;100.00
30897;BME280;64229;52.246;21.054;2024-02-23T05:26:54;98575.03;;;7.36;100.00
30897;BME280;64229;52.246;21.054;2024-02-23T05:29:19;98577.28;;;7.23;100.00
30897;BME280;64229;52.246;21.054;2024-02-23T05:31:49;98576.06;;;7.16;100.00
30897;BME280;64229;52.246;21.054;2024-02-23T05:34:15;98585.59;;;7.17;100.00
30897;BME280;64229;52.246;21.054;2024-02-23T05:36:40;98590.19;;;7.30;100.00
30897;BME280;64229;52.246;21.054;2024-02-23T05:39:05;98592.09;;;7.06;100.00
30897;BME280;64229;52.246;21.054;2024-02-23T05:41:32;98588.41;;;7.25;100.00
30897;BME280;64229;52.246;21.054;2024-02-23T05:43:57;98597.59;;;7.09;100.00
30897;BME280;64229;52.246;21.054;2024-02-23T05:46:23;98605.28;;;7.11;100.00
30897;BME280;64229;52.246;21.054;2024-02-23T05:48:48;98597.94;;;7.27;100.00
30897;BME280;64229;52.246;21.054;2024-02-23T05:51:13;98597.00;;;7.17;100.00
30897;BME280;64229;52.246;21.054;2024-02-23T05:53:40;98613.78;;;7.13;100.00
30897;BME280;64229;52.246;21.054;2024-02-23T05:56:06;98609.25;;;7.13;100.00
30897;BME280;64229;52.246;21.054;2024-02-23T05:58:31;98610.03;;;7.38;100.00
30897;BME280;64229;52.246;21.054;2024-02-23T06:00:56;98618.97;;;7.42;100.00
30897;BME280;64229;52.246;21.054;2024-02-23T06:03:22;98618.16;;;7.46;100.00
30897;BME280;64229;52.246;21.054;2024-02-23T06:05:47;98617.69;;;7.39;100.00
30897;BME280;64229;52.246;21.054;2024-02-23T06:08:12;98622.97;;;7.44;100.00
30897;BME280;64229;52.246;21.054;2024-02-23T06:10:37;98627.97;;;7.65;100.00
30897;BME280;64229;52.246;21.054;2024-02-23T06:13:03;98642.03;;;7.65;100.00
30897;BME280;64229;52.246;21.054;2024-02-23T06:15:28;98642.88;;;7.66;100.00
30897;BME280;64229;52.246;21.054;2024-02-23T06:17:54;98641.25;;;7.65;100.00
30897;BME280;64229;52.246;21.054;2024-02-23T06:20:19;98641.84;;;7.62;100.00
30897;BME280;64229;52.246;21.054;2024-02-23T06:22:45;98645.66;;;7.56;100.00
30897;BME280;64229;52.246;21.054;2024-02-23T06:25:10;98627.59;;;7.52;100.00
30897;BME280;64229;52.246;21.054;2024-02-23T06:27:36;98651.84;;;7.70;100.00
30897;BME280;64229;52.246;21.054;2024-02-23T06:30:02;98654.19;;;7.71;100.00
30897;BME280;64229;52.246;21.054;2024-02-23T06:32:27;98653.00;;;8.01;100.00
30897;BME280;64229;52.246;21.054;2024-02-23T06:34:52;98661.13;;;8.10;100.00
30897;BME280;64229;52.246;21.054;2024-02-23T06:37:18;98657.88;;;8.13;100.00
30897;BME280;64229;52.246;21.054;2024-02-23T06:39:44;98667.06;;;8.02;100.00
30897;BME280;64229;52.246;21.054;2024-02-23T06:42:10;98670.34;;;7.75;100.00
30897;BME280;64229;52.246;21.054;2024-02-23T06:44:36;98666.34;;;7.77;100.00
30897;BME280;64229;52.246;21.054;2024-02-23T06:47:01;98677.56;;;7.93;100.00
30897;BME280;64229;52.246;21.054;2024-02-23T06:49:26;98683.81;;;8.02;100.00
30897;BME280;64229;52.246;21.054;2024-02-23T06:51:51;98682.59;;;8.13;100.00
30897;BME280;64229;52.246;21.054;2024-02-23T06:54:17;98672.91;;;8.23;100.00
30897;BME280;64229;52.246;21.054;2024-02-23T06:56:43;98679.28;;;8.03;100.00
30897;BME280;64229;52.246;21.054;2024-02-23T06:59:08;98680.94;;;8.18;100.00
30897;BME280;64229;52.246;21.054;2024-02-23T07:01:33;98675.69;;;8.31;100.00
30897;BME280;64229;52.246;21.054;2024-02-23T07:04:00;98686.56;;;8.54;100.00
30897;BME280;64229;52.246;21.054;2024-02-23T07:06:26;98698.97;;;8.39;100.00
30897;BME280;64229;52.246;21.054;2024-02-23T07:08:53;98697.38;;;8.57;100.00
30897;BME280;64229;52.246;21.054;2024-02-23T07:11:19;98693.78;;;8.48;100.00
30897;BME280;64229;52.246;21.054;2024-02-23T07:13:45;98702.06;;;8.47;100.00
30897;BME280;64229;52.246;21.054;2024-02-23T07:16:10;98701.63;;;8.39;100.00
30897;BME280;64229;52.246;21.054;2024-02-23T07:18:35;98714.78;;;8.50;100.00
30897;BME280;64229;52.246;21.054;2024-02-23T07:21:00;98716.53;;;8.40;100.00
30897;BME280;64229;52.246;21.054;2024-02-23T07:23:26;98717.50;;;8.63;100.00
30897;BME280;64229;52.246;21.054;2024-02-23T07:25:52;98715.34;;;8.65;100.00
30897;BME280;64229;52.246;21.054;2024-02-23T07:28:18;98721.81;;;8.59;100.00
30897;BME280;64229;52.246;21.054;2024-02-23T07:30:48;98718.78;;;8.66;100.00
30897;BME280;64229;52.246;21.054;2024-02-23T07:33:13;98725.63;;;8.72;100.00
30897;BME280;64229;52.246;21.054;2024-02-23T07:35:38;98726.28;;;8.64;100.00
30897;BME280;64229;52.246;21.054;2024-02-23T07:38:04;98732.44;;;8.78;100.00
30897;BME280;64229;52.246;21.054;2024-02-23T07:40:29;98732.94;;;8.80;100.00
30897;BME280;64229;52.246;21.054;2024-02-23T07:42:57;98732.56;;;8.87;100.00
30897;BME280;64229;52.246;21.054;2024-02-23T07:45:22;98733.81;;;8.76;100.00
30897;BME280;64229;52.246;21.054;2024-02-23T07:47:48;98739.16;;;8.57;100.00
30897;BME280;64229;52.246;21.054;2024-02-23T07:50:13;98744.59;;;8.65;100.00
30897;BME280;64229;52.246;21.054;2024-02-23T07:52:40;98736.53;;;8.70;100.00
30897;BME280;64229;52.246;21.054;2024-02-23T07:55:06;98729.44;;;8.66;100.00
30897;BME280;64229;52.246;21.054;2024-02-23T07:57:32;98755.59;;;8.78;100.00
30897;BME280;64229;52.246;21.054;2024-02-23T07:59:58;98768.91;;;8.59;100.00
30897;BME280;64229;52.246;21.054;2024-02-23T08:02:23;98759.13;;;8.73;100.00
30897;BME280;64229;52.246;21.054;2024-02-23T08:04:48;98765.72;;;8.76;100.00
30897;BME280;64229;52.246;21.054;2024-02-23T08:07:15;98769.81;;;8.68;100.00
30897;BME280;64229;52.246;21.054;2024-02-23T08:09:40;98764.00;;;8.66;100.00
30897;BME280;64229;52.246;21.054;2024-02-23T08:12:06;98771.09;;;8.89;100.00
30897;BME280;64229;52.246;21.054;2024-02-23T08:14:31;98771.28;;;8.93;100.00
30897;BME280;64229;52.246;21.054;2024-02-23T08:16:58;98784.50;;;8.84;100.00
30897;BME280;64229;52.246;21.054;2024-02-23T08:19:23;98785.41;;;8.93;100.00
30897;BME280;64229;52.246;21.054;2024-02-23T08:21:48;98782.63;;;8.85;100.00
30897;BME280;64229;52.246;21.054;2024-02-23T08:24:13;98783.03;;;8.92;100.00
30897;BME280;64229;52.246;21.054;2024-02-23T08:26:39;98779.56;;;8.91;100.00
30897;BME280;64229;52.246;21.054;2024-02-23T08:29:06;98789.91;;;8.93;100.00
30897;BME280;64229;52.246;21.054;2024-02-23T08:31:31;98798.34;;;9.00;100.00
30897;BME280;64229;52.246;21.054;2024-02-23T08:33:57;98793.09;;;8.95;100.00
30897;BME280;64229;52.246;21.054;2024-02-23T08:36:22;98789.91;;;9.12;100.00
30897;BME280;64229;52.246;21.054;2024-02-23T08:38:47;98797.81;;;9.17;100.00
30897;BME280;64229;52.246;21.054;2024-02-23T08:41:12;98815.13;;;9.14;100.00
30897;BME280;64229;52.246;21.054;2024-02-23T08:43:38;98813.56;;;9.13;100.00
30897;BME280;64229;52.246;21.054;2024-02-23T08:46:03;98806.72;;;9.26;100.00
30897;BME280;64229;52.246;21.054;2024-02-23T08:48:29;98813.72;;;9.36;100.00
30897;BME280;64229;52.246;21.054;2024-02-23T08:50:54;98825.88;;;9.42;100.00
30897;BME280;64229;52.246;21.054;2024-02-23T08:53:20;98817.72;;;9.19;100.00
30897;BME280;64229;52.246;21.054;2024-02-23T08:55:45;98810.41;;;9.11;100.00
30897;BME280;64229;52.246;21.054;2024-02-23T08:58:11;98825.06;;;9.27;100.00
30897;BME280;64229;52.246;21.054;2024-02-23T09:00:36;98833.53;;;9.30;100.00
30897;BME280;64229;52.246;21.054;2024-02-23T09:03:02;98836.78;;;9.26;100.00
30897;BME280;64229;52.246;21.054;2024-02-23T09:05:27;98835.00;;;9.22;100.00
30897;BME280;64229;52.246;21.054;2024-02-23T09:07:53;98830.91;;;9.11;100.00
30897;BME280;64229;52.246;21.054;2024-02-23T09:10:18;98846.41;;;9.41;100.00
30897;BME280;64229;52.246;21.054;2024-02-23T09:12:43;98841.44;;;9.35;100.00
30897;BME280;64229;52.246;21.054;2024-02-23T09:15:09;98838.22;;;9.51;100.00
30897;BME280;64229;52.246;21.054;2024-02-23T09:17:34;98845.13;;;9.52;100.00
30897;BME280;64229;52.246;21.054;2024-02-23T09:19:59;98856.28;;;9.54;100.00
30897;BME280;64229;52.246;21.054;2024-02-23T09:22:25;98854.72;;;9.53;100.00
30897;BME280;64229;52.246;21.054;2024-02-23T09:24:50;98862.63;;;9.59;100.00
30897;BME280;64229;52.246;21.054;2024-02-23T09:27:15;98861.25;;;9.61;100.00
30897;BME280;64229;52.246;21.054;2024-02-23T09:29:41;98863.25;;;9.69;100.00
30897;BME280;64229;52.246;21.054;2024-02-23T09:32:09;98850.00;;;9.64;100.00
30897;BME280;64229;52.246;21.054;2024-02-23T09:34:34;98869.72;;;9.63;100.00
30897;BME280;64229;52.246;21.054;2024-02-23T09:37:00;98864.53;;;9.85;100.00
30897;BME280;64229;52.246;21.054;2024-02-23T09:39:25;98866.03;;;9.92;100.00
30897;BME280;64229;52.246;21.054;2024-02-23T09:41:55;98874.91;;;9.87;100.00
30897;BME280;64229;52.246;21.054;2024-02-23T09:44:21;98872.75;;;9.89;100.00
30897;BME280;64229;52.246;21.054;2024-02-23T09:46:47;98877.41;;;10.11;100.00
30897;BME280;64229;52.246;21.054;2024-02-23T09:49:14;98876.94;;;10.23;100.00
30897;BME280;64229;52.246;21.054;2024-02-23T09:51:41;98869.97;;;10.08;100.00
30897;BME280;64229;52.246;21.054;2024-02-23T09:54:07;98873.53;;;10.17;100.00
30897;BME280;64229;52.246;21.054;2024-02-23T09:56:32;98875.59;;;9.93;100.00
30897;BME280;64229;52.246;21.054;2024-02-23T09:59:02;98891.50;;;9.98;100.00
30897;BME280;64229;52.246;21.054;2024-02-23T10:01:29;98895.16;;;10.02;100.00
30897;BME280;64229;52.246;21.054;2024-02-23T10:04:00;98904.16;;;10.06;100.00
30897;BME280;64229;52.246;21.054;2024-02-23T10:06:26;98899.78;;;10.10;100.00
30897;BME280;64229;52.246;21.054;2024-02-23T10:08:51;98899.59;;;10.06;100.00
30897;BME280;64229;52.246;21.054;2024-02-23T10:11:20;98894.28;;;10.06;100.00
30897;BME280;64229;52.246;21.054;2024-02-23T10:13:47;98903.97;;;10.02;100.00
30897;BME280;64229;52.246;21.054;2024-02-23T10:16:14;98901.19;;;9.94;100.00
30897;BME280;64229;52.246;21.054;2024-02-23T10:18:40;98900.75;;;9.86;100.00
30897;BME280;64229;52.246;21.054;2024-02-23T10:21:05;98911.03;;;9.79;100.00
30897;BME280;64229;52.246;21.054;2024-02-23T10:23:30;98886.00;;;9.62;100.00
30897;BME280;64229;52.246;21.054;2024-02-23T10:25:56;98913.34;;;9.67;100.00
30897;BME280;64229;52.246;21.054;2024-02-23T10:28:21;98913.09;;;9.82;100.00
30897;BME280;64229;52.246;21.054;2024-02-23T10:30:48;98919.66;;;10.04;100.00
30897;BME280;64229;52.246;21.054;2024-02-23T10:33:14;98925.84;;;9.99;100.00
30897;BME280;64229;52.246;21.054;2024-02-23T10:35:41;98923.00;;;9.96;100.00
30897;BME280;64229;52.246;21.054;2024-02-23T10:38:08;98909.03;;;9.71;100.00
30897;BME280;64229;52.246;21.054;2024-02-23T10:40:39;98919.09;;;9.74;100.00
30897;BME280;64229;52.246;21.054;2024-02-23T10:43:12;98934.22;;;9.79;100.00
30897;BME280;64229;52.246;21.054;2024-02-23T10:45:39;98939.19;;;9.67;100.00
30897;BME280;64229;52.246;21.054;2024-02-23T10:48:07;98949.22;;;9.56;100.00
30897;BME280;64229;52.246;21.054;2024-02-23T10:50:34;98932.41;;;9.42;100.00
30897;BME280;64229;52.246;21.054;2024-02-23T10:53:00;98942.25;;;9.60;100.00
30897;BME280;64229;52.246;21.054;2024-02-23T10:55:26;98944.91;;;9.60;100.00
30897;BME280;64229;52.246;21.054;2024-02-23T10:57:53;98949.50;;;9.54;100.00
30897;BME280;64229;52.246;21.054;2024-02-23T11:00:21;98953.34;;;9.48;100.00
30897;BME280;64229;52.246;21.054;2024-02-23T11:02:50;98949.09;;;9.47;100.00
30897;BME280;64229;52.246;21.054;2024-02-23T11:05:16;98956.78;;;9.49;100.00
30897;BME280;64229;52.246;21.054;2024-02-23T11:07:46;98957.16;;;9.42;100.00
30897;BME280;64229;52.246;21.054;2024-02-23T11:10:14;98942.34;;;9.36;100.00
30897;BME280;64229;52.246;21.054;2024-02-23T11:12:40;98968.88;;;9.41;100.00
30897;BME280;64229;52.246;21.054;2024-02-23T11:15:06;98960.84;;;9.46;100.00
30897;BME280;64229;52.246;21.054;2024-02-23T11:17:35;98972.84;;;9.44;100.00
30897;BME280;64229;52.246;21.054;2024-02-23T11:20:03;98977.66;;;9.42;100.00
30897;BME280;64229;52.246;21.054;2024-02-23T11:22:34;98978.66;;;9.46;100.00
30897;BME280;64229;52.246;21.054;2024-02-23T11:25:03;98982.06;;;9.51;100.00
30897;BME280;64229;52.246;21.054;2024-02-23T11:27:31;98983.56;;;9.57;100.00
30897;BME280;64229;52.246;21.054;2024-02-23T11:30:05;98982.50;;;9.40;100.00
30897;BME280;64229;52.246;21.054;2024-02-23T11:32:37;98986.25;;;9.39;100.00
30897;BME280;64229;52.246;21.054;2024-02-23T11:35:05;98989.09;;;9.42;100.00
30897;BME280;64229;52.246;21.054;2024-02-23T11:37:31;98984.81;;;9.46;100.00
30897;BME280;64229;52.246;21.054;2024-02-23T11:39:59;99002.38;;;9.47;100.00
30897;BME280;64229;52.246;21.054;2024-02-23T11:42:26;99000.34;;;9.58;100.00
30897;BME280;64229;52.246;21.054;2024-02-23T11:44:52;99011.41;;;9.65;100.00
30897;BME280;64229;52.246;21.054;2024-02-23T11:47:19;99008.53;;;9.62;100.00
30897;BME280;64229;52.246;21.054;2024-02-23T11:49:44;99004.28;;;9.61;100.00
30897;BME280;64229;52.246;21.054;2024-02-23T11:52:09;98994.28;;;9.52;100.00
30897;BME280;64229;52.246;21.054;2024-02-23T11:54:35;99005.72;;;9.72;100.00
30897;BME280;64229;52.246;21.054;2024-02-23T11:57:00;99015.41;;;9.68;100.00
30897;BME280;64229;52.246;21.054;2024-02-23T11:59:26;99021.88;;;9.62;100.00
30897;BME280;64229;52.246;21.054;2024-02-23T12:01:51;99028.97;;;9.66;100.00
30897;BME280;64229;52.246;21.054;2024-02-23T12:04:16;99034.31;;;9.66;100.00
30897;BME280;64229;52.246;21.054;2024-02-23T12:06:42;99026.84;;;9.68;100.00
30897;BME280;64229;52.246;21.054;2024-02-23T12:09:08;99039.63;;;9.66;100.00
30897;BME280;64229;52.246;21.054;2024-02-23T12:11:34;99041.22;;;9.67;100.00
30897;BME280;64229;52.246;21.054;2024-02-23T12:14:00;99043.09;;;9.67;100.00
30897;BME280;64229;52.246;21.054;2024-02-23T12:16:27;99038.84;;;9.66;100.00
30897;BME280;64229;52.246;21.054;2024-02-23T12:18:56;99037.91;;;9.75;100.00
30897;BME280;64229;52.246;21.054;2024-02-23T12:21:23;99045.41;;;9.73;100.00
30897;BME280;64229;52.246;21.054;2024-02-23T12:23:49;99035.81;;;9.72;100.00
30897;BME280;64229;52.246;21.054;2024-02-23T12:26:19;99049.69;;;9.88;100.00
30897;BME280;64229;52.246;21.054;2024-02-23T12:28:45;99056.91;;;9.88;100.00
30897;BME280;64229;52.246;21.054;2024-02-23T12:31:11;99040.00;;;9.78;100.00
30897;BME280;64229;52.246;21.054;2024-02-23T12:33:38;99052.16;;;9.84;100.00
30897;BME280;64229;52.246;21.054;2024-02-23T12:36:06;99054.38;;;9.96;100.00
30897;BME280;64229;52.246;21.054;2024-02-23T12:38:32;99058.91;;;9.96;100.00
30897;BME280;64229;52.246;21.054;2024-02-23T12:40:57;99058.47;;;10.07;100.00
30897;BME280;64229;52.246;21.054;2024-02-23T12:43:23;99067.19;;;10.13;100.00
30897;BME280;64229;52.246;21.054;2024-02-23T12:45:54;99043.22;;;9.94;100.00
30897;BME280;64229;52.246;21.054;2024-02-23T12:48:20;99067.38;;;10.17;100.00
30897;BME280;64229;52.246;21.054;2024-02-23T12:50:46;99062.50;;;10.24;100.00
30897;BME280;64229;52.246;21.054;2024-02-23T12:55:57;99062.88;;;9.98;100.00
30897;BME280;64229;52.246;21.054;2024-02-23T12:58:23;99068.78;;;9.95;100.00
30897;BME280;64229;52.246;21.054;2024-02-23T13:00:48;99072.25;;;9.96;100.00
30897;BME280;64229;52.246;21.054;2024-02-23T13:03:13;99068.72;;;10.00;100.00
30897;BME280;64229;52.246;21.054;2024-02-23T13:05:38;99075.06;;;10.04;100.00
30897;BME280;64229;52.246;21.054;2024-02-23T13:08:05;99083.25;;;10.08;100.00